• Join FlightAware (Why Join?)
  • Login
  • US Flag 
12:06AM EDT


 

Airport Tracker/Info


-or-


 

Live Flight TrackerFlight Track Log ✈ N319EE ✈ 03-Oct-2013 ✈ KPWM - KBGM

Flight Track Log - Related Links

Times and Time Zones

All times are in EDT time to prevent confusion due to time zone crossing. See the N319EE flight status page for this flight to view local times or setup timezone preferences in your user account.

Time Position Orientation Groundspeed Altitude Reporting Facility
EDT Latitude Longitude Course Direction KTS MPH feet Rate Location/Type
07:17PM 43.6789 -70.5453 283° West 179 206 7,700  Level Boston Center
07:18PM 43.6906 -70.6167 283° West 179 206 10,100 2,040 Climbing Boston Center
07:19PM 43.6914 -70.6686 271° West 166 191 11,800 1,800 Climbing Boston Center
07:20PM 43.5309 -70.8166 260° West  Level Estimated
07:20PM 43.6736 -70.7378 250° West 166 191 13,800  Level Boston Center
07:21PM 43.5116 -70.9010 256° West  Level Estimated
07:21PM 43.6578 -70.7928 248° West 173 199 15,200  Level Boston Center
07:22PM 43.6378 -70.8650 249° West 178 205 16,000 360 Climbing Boston Center
07:23PM 43.6181 -70.9344 249° West 209 241 16,000  Level Boston Center
07:24PM 43.5919 -71.0269 249° West 226 260 16,000  Level Boston Center
07:25PM 43.5700 -71.1019 248° West 234 269 16,000  Level Boston Center
07:26PM 43.5419 -71.1969 248° West 234 269 16,000  Level Boston Center
07:27PM 43.5197 -71.2692 247° West 234 269 16,000  Level Boston Center
07:28PM 43.4978 -71.3525 250° West 234 269 16,000  Level Boston Center
07:29PM 43.4694 -71.4417 246° West 234 269 16,000  Level Boston Center
07:30PM 43.4492 -71.5164 250° West 234 269 16,000  Level Boston Center
07:31PM 43.4206 -71.6083 247° West 234 269 16,000  Level Boston Center
07:32PM 43.4003 -71.6828 249° West 234 269 16,000  Level Boston Center
07:33PM 43.3739 -71.7744 248° West 234 269 16,000  Level Boston Center
07:34PM 43.3514 -71.8492 248° West 234 269 16,000  Level Boston Center
07:35PM 43.3247 -71.9406 248° West 234 269 16,000  Level Boston Center
07:36PM 43.3019 -72.0150 247° West 234 269 16,000  Level Boston Center
07:37PM 43.2753 -72.1064 248° West 234 269 16,000  Level Boston Center
07:38PM 43.2525 -72.1806 247° West 234 269 16,000  Level Boston Center
07:39PM 43.2256 -72.2719 248° West 234 269 16,000  Level Boston Center
07:40PM 43.2006 -72.3547 248° West 234 269 16,000  Level Boston Center
07:41PM 43.1778 -72.4372 249° West 234 269 16,000  Level Boston Center
07:42PM 43.1528 -72.5142 246° West 234 269 16,000  Level Boston Center
07:43PM 43.1297 -72.5936 248° West 234 269 16,000  Level Boston Center
07:44PM 43.1044 -72.6733 247° West 234 269 16,000  Level Boston Center
07:45PM 43.0794 -72.7528 247° West 234 269 16,000  Level Boston Center
07:46PM 43.0519 -72.8378 246° West 234 269 16,000  Level Boston Center
07:47PM 43.0267 -72.9231 248° West 234 269 16,000  Level Boston Center
07:48PM 42.9992 -73.0022 245° Southwest 234 269 16,000  Level Boston Center
07:49PM 42.9758 -73.0786 247° West 234 269 16,000  Level Boston Center
07:50PM 42.9483 -73.1692 247° West 234 269 16,000  Level Boston Center
07:51PM 42.9228 -73.2539 248° West 239 275 16,000  Level Boston Center
07:52PM 42.8972 -73.3328 246° West 239 275 16,000  Level Boston Center
07:53PM 42.8714 -73.4147 247° West 234 269 16,000  Level Boston Center
07:54PM 42.8456 -73.4936 246° West 234 269 16,000  Level Boston Center
07:55PM 42.8200 -73.5750 247° West 234 269 16,000  Level Boston Center
07:56PM 42.7942 -73.6539 246° West 234 269 16,000  Level Boston Center
07:57PM 42.7703 -73.7383 249° West 239 275 16,000  Level Boston Center
07:58PM 42.7464 -73.8197 248° West 239 275 16,000  Level Boston Center
07:59PM 42.7244 -73.9069 251° West 239 275 16,000  Level Boston Center
08:00PM 42.7044 -73.9911 252° West 239 275 16,000  Level Boston Center
08:01PM 42.6847 -74.0756 252° West 244 281 16,000  Level Boston Center
08:02PM 42.6625 -74.1539 249° West 244 281 16,000  Level Boston Center
08:03PM 42.6447 -74.2325 253° West 244 281 16,000  Level Boston Center
08:04PM 42.6222 -74.3250 252° West 244 281 16,000  Level Boston Center
08:05PM 42.6022 -74.4006 250° West 244 281 16,000  Level Boston Center
08:06PM 42.5797 -74.4956 252° West 244 281 16,000  Level Boston Center
08:07PM 42.5617 -74.5683 251° West 244 281 16,000  Level Boston Center
08:08PM 42.5392 -74.6633 252° West 244 281 16,000 -240 Level Boston Center
08:09PM 42.5167 -74.7386 248° West 244 281 15,600 -600 Descending Boston Center
08:10PM 42.4939 -74.8336 252° West 254 292 14,900 -720 Descending Boston Center
08:11PM 42.4669 -74.9256 248° West 259 298 14,200 -720 Descending Boston Center
08:12PM 42.4419 -75.0200 250° West 265 305 13,500 -720 Descending Boston Center
08:13PM 42.4169 -75.1119 250° West 265 305 12,800 -720 Descending Boston Center
08:14PM 42.3897 -75.2008 248° West 265 305 12,100 -780 Descending Boston Center
08:16PM 42.3625 -75.3295 254° West  Level FlightAware Approximate
08:23PM 42.2196 -75.8914 246° West  Level FlightAware Approximate
08:24PM 42.2000 -75.9667 270° West  Level FlightAware Approximate
08:25PM 42.2084 -75.9796 270° West  Level Estimated
08:26PM 42.2084 -75.9796 270° West  Level Estimated
08:27PM 42.2084 -75.9796 270° West  Level Estimated
08:28PM 42.2084 -75.9796 270° West  Level Estimated
08:29PM 42.2084 -75.9796 270° West  Level Estimated
08:30PM 42.2084 -75.9796 270° West  Level Estimated